sensor_id;sensor_type;location;lat;lon;timestamp;P1;durP1;ratioP1;P2;durP2;ratioP2
19830;SDS011;10076;52.008;4.708;2023-09-07T00:01:15;25.17;;;23.38;;
19830;SDS011;10076;52.008;4.708;2023-09-07T00:03:40;26.42;;;24.50;;
19830;SDS011;10076;52.008;4.708;2023-09-07T00:06:06;25.70;;;23.90;;
19830;SDS011;10076;52.008;4.708;2023-09-07T00:08:32;25.90;;;24.00;;
19830;SDS011;10076;52.008;4.708;2023-09-07T00:11:07;25.65;;;23.85;;
19830;SDS011;10076;52.008;4.708;2023-09-07T00:13:34;26.10;;;24.30;;
19830;SDS011;10076;52.008;4.708;2023-09-07T00:16:00;27.05;;;25.10;;
19830;SDS011;10076;52.008;4.708;2023-09-07T00:18:26;26.48;;;24.48;;
19830;SDS011;10076;52.008;4.708;2023-09-07T00:20:52;26.77;;;24.70;;
19830;SDS011;10076;52.008;4.708;2023-09-07T00:23:17;27.23;;;25.23;;
19830;SDS011;10076;52.008;4.708;2023-09-07T00:25:44;26.75;;;24.85;;
19830;SDS011;10076;52.008;4.708;2023-09-07T00:28:10;27.35;;;25.35;;
19830;SDS011;10076;52.008;4.708;2023-09-07T00:30:35;28.88;;;26.70;;
19830;SDS011;10076;52.008;4.708;2023-09-07T00:33:00;29.00;;;26.70;;
19830;SDS011;10076;52.008;4.708;2023-09-07T00:35:26;27.48;;;25.48;;
19830;SDS011;10076;52.008;4.708;2023-09-07T00:37:51;28.73;;;26.60;;
19830;SDS011;10076;52.008;4.708;2023-09-07T00:40:16;28.52;;;26.33;;
19830;SDS011;10076;52.008;4.708;2023-09-07T00:42:41;28.58;;;26.40;;
19830;SDS011;10076;52.008;4.708;2023-09-07T00:45:07;29.00;;;26.92;;
19830;SDS011;10076;52.008;4.708;2023-09-07T00:47:33;28.23;;;26.13;;
19830;SDS011;10076;52.008;4.708;2023-09-07T00:50:02;28.92;;;26.77;;
19830;SDS011;10076;52.008;4.708;2023-09-07T00:52:29;30.38;;;28.10;;
19830;SDS011;10076;52.008;4.708;2023-09-07T00:54:55;29.63;;;27.23;;
19830;SDS011;10076;52.008;4.708;2023-09-07T00:57:20;29.60;;;27.48;;
19830;SDS011;10076;52.008;4.708;2023-09-07T00:59:46;29.30;;;27.23;;
19830;SDS011;10076;52.008;4.708;2023-09-07T01:02:11;28.27;;;26.13;;
19830;SDS011;10076;52.008;4.708;2023-09-07T01:04:36;28.88;;;26.65;;
19830;SDS011;10076;52.008;4.708;2023-09-07T01:07:02;29.05;;;26.90;;
19830;SDS011;10076;52.008;4.708;2023-09-07T01:09:35;30.27;;;28.08;;
19830;SDS011;10076;52.008;4.708;2023-09-07T01:12:02;30.23;;;28.02;;
19830;SDS011;10076;52.008;4.708;2023-09-07T01:14:27;29.85;;;27.75;;
19830;SDS011;10076;52.008;4.708;2023-09-07T01:16:52;30.70;;;28.30;;
19830;SDS011;10076;52.008;4.708;2023-09-07T01:19:18;30.75;;;28.23;;
19830;SDS011;10076;52.008;4.708;2023-09-07T01:21:44;30.73;;;28.33;;
19830;SDS011;10076;52.008;4.708;2023-09-07T01:24:11;30.63;;;28.42;;
19830;SDS011;10076;52.008;4.708;2023-09-07T01:26:38;30.90;;;28.55;;
19830;SDS011;10076;52.008;4.708;2023-09-07T01:29:04;30.30;;;28.00;;
19830;SDS011;10076;52.008;4.708;2023-09-07T01:31:30;31.75;;;29.35;;
19830;SDS011;10076;52.008;4.708;2023-09-07T01:33:55;31.30;;;29.00;;
19830;SDS011;10076;52.008;4.708;2023-09-07T01:36:21;31.75;;;29.42;;
19830;SDS011;10076;52.008;4.708;2023-09-07T01:38:46;32.10;;;29.63;;
19830;SDS011;10076;52.008;4.708;2023-09-07T01:41:11;30.88;;;28.30;;
19830;SDS011;10076;52.008;4.708;2023-09-07T01:43:37;32.22;;;29.63;;
19830;SDS011;10076;52.008;4.708;2023-09-07T01:46:02;33.58;;;30.95;;
19830;SDS011;10076;52.008;4.708;2023-09-07T01:48:27;32.75;;;30.23;;
19830;SDS011;10076;52.008;4.708;2023-09-07T01:50:53;34.17;;;31.48;;
19830;SDS011;10076;52.008;4.708;2023-09-07T01:53:19;33.42;;;30.42;;
19830;SDS011;10076;52.008;4.708;2023-09-07T01:55:44;32.42;;;29.83;;
19830;SDS011;10076;52.008;4.708;2023-09-07T01:58:10;33.63;;;31.00;;
19830;SDS011;10076;52.008;4.708;2023-09-07T02:00:38;33.47;;;30.98;;
19830;SDS011;10076;52.008;4.708;2023-09-07T02:03:04;33.95;;;31.15;;
19830;SDS011;10076;52.008;4.708;2023-09-07T02:05:30;34.05;;;31.45;;
19830;SDS011;10076;52.008;4.708;2023-09-07T02:07:57;35.15;;;32.28;;
19830;SDS011;10076;52.008;4.708;2023-09-07T02:10:23;36.08;;;33.17;;
19830;SDS011;10076;52.008;4.708;2023-09-07T02:12:48;36.33;;;33.22;;
19830;SDS011;10076;52.008;4.708;2023-09-07T02:15:14;34.33;;;31.63;;
19830;SDS011;10076;52.008;4.708;2023-09-07T02:17:39;35.78;;;32.90;;
19830;SDS011;10076;52.008;4.708;2023-09-07T02:20:05;35.33;;;32.53;;
19830;SDS011;10076;52.008;4.708;2023-09-07T02:22:35;35.85;;;33.08;;
19830;SDS011;10076;52.008;4.708;2023-09-07T02:25:01;37.03;;;33.95;;
19830;SDS011;10076;52.008;4.708;2023-09-07T02:27:26;34.53;;;31.83;;
19830;SDS011;10076;52.008;4.708;2023-09-07T02:29:51;35.35;;;32.35;;
19830;SDS011;10076;52.008;4.708;2023-09-07T02:32:16;35.55;;;32.63;;
19830;SDS011;10076;52.008;4.708;2023-09-07T02:34:42;36.53;;;33.40;;
19830;SDS011;10076;52.008;4.708;2023-09-07T02:37:08;35.10;;;32.20;;
19830;SDS011;10076;52.008;4.708;2023-09-07T02:39:33;36.30;;;33.30;;
19830;SDS011;10076;52.008;4.708;2023-09-07T02:41:58;37.15;;;34.15;;
19830;SDS011;10076;52.008;4.708;2023-09-07T02:44:24;35.88;;;32.88;;
19830;SDS011;10076;52.008;4.708;2023-09-07T02:46:49;36.58;;;33.60;;
19830;SDS011;10076;52.008;4.708;2023-09-07T02:49:15;36.85;;;33.80;;
19830;SDS011;10076;52.008;4.708;2023-09-07T02:51:40;37.42;;;34.28;;
19830;SDS011;10076;52.008;4.708;2023-09-07T02:54:05;38.60;;;35.05;;
19830;SDS011;10076;52.008;4.708;2023-09-07T02:56:31;37.42;;;34.13;;
19830;SDS011;10076;52.008;4.708;2023-09-07T02:58:56;38.38;;;35.22;;
19830;SDS011;10076;52.008;4.708;2023-09-07T03:01:22;39.58;;;36.38;;
19830;SDS011;10076;52.008;4.708;2023-09-07T03:03:47;37.20;;;34.00;;
19830;SDS011;10076;52.008;4.708;2023-09-07T03:06:14;37.45;;;34.17;;
19830;SDS011;10076;52.008;4.708;2023-09-07T03:08:41;37.35;;;34.28;;
19830;SDS011;10076;52.008;4.708;2023-09-07T03:11:07;36.88;;;33.80;;
19830;SDS011;10076;52.008;4.708;2023-09-07T03:13:33;37.03;;;34.03;;
19830;SDS011;10076;52.008;4.708;2023-09-07T03:15:59;37.22;;;34.08;;
19830;SDS011;10076;52.008;4.708;2023-09-07T03:18:26;36.83;;;33.70;;
19830;SDS011;10076;52.008;4.708;2023-09-07T03:20:52;36.40;;;33.40;;
19830;SDS011;10076;52.008;4.708;2023-09-07T03:23:19;37.92;;;34.83;;
19830;SDS011;10076;52.008;4.708;2023-09-07T03:25:44;37.97;;;34.63;;
19830;SDS011;10076;52.008;4.708;2023-09-07T03:28:09;37.97;;;34.88;;
19830;SDS011;10076;52.008;4.708;2023-09-07T03:30:35;36.78;;;33.78;;
19830;SDS011;10076;52.008;4.708;2023-09-07T03:33:00;39.38;;;36.08;;
19830;SDS011;10076;52.008;4.708;2023-09-07T03:35:25;38.47;;;35.13;;
19830;SDS011;10076;52.008;4.708;2023-09-07T03:37:51;40.67;;;37.17;;
19830;SDS011;10076;52.008;4.708;2023-09-07T03:40:16;37.92;;;34.70;;
19830;SDS011;10076;52.008;4.708;2023-09-07T03:42:41;38.72;;;35.22;;
19830;SDS011;10076;52.008;4.708;2023-09-07T03:45:08;39.17;;;35.92;;
19830;SDS011;10076;52.008;4.708;2023-09-07T03:47:34;38.60;;;35.10;;
19830;SDS011;10076;52.008;4.708;2023-09-07T03:49:59;37.22;;;33.85;;
19830;SDS011;10076;52.008;4.708;2023-09-07T03:52:25;40.03;;;36.53;;
19830;SDS011;10076;52.008;4.708;2023-09-07T03:54:52;39.25;;;35.53;;
19830;SDS011;10076;52.008;4.708;2023-09-07T03:57:19;38.70;;;35.53;;
19830;SDS011;10076;52.008;4.708;2023-09-07T03:59:45;40.55;;;36.90;;
19830;SDS011;10076;52.008;4.708;2023-09-07T04:02:11;39.33;;;35.90;;
19830;SDS011;10076;52.008;4.708;2023-09-07T04:04:37;40.30;;;36.85;;
19830;SDS011;10076;52.008;4.708;2023-09-07T04:07:03;41.70;;;38.05;;
19830;SDS011;10076;52.008;4.708;2023-09-07T04:09:28;40.72;;;37.35;;
19830;SDS011;10076;52.008;4.708;2023-09-07T04:11:53;40.40;;;37.03;;
19830;SDS011;10076;52.008;4.708;2023-09-07T04:14:19;38.92;;;35.42;;
19830;SDS011;10076;52.008;4.708;2023-09-07T04:16:44;40.33;;;36.90;;
19830;SDS011;10076;52.008;4.708;2023-09-07T04:19:09;41.72;;;37.92;;
19830;SDS011;10076;52.008;4.708;2023-09-07T04:21:35;40.10;;;36.60;;
19830;SDS011;10076;52.008;4.708;2023-09-07T04:24:01;40.45;;;36.75;;
19830;SDS011;10076;52.008;4.708;2023-09-07T04:26:27;39.33;;;35.75;;
19830;SDS011;10076;52.008;4.708;2023-09-07T04:28:52;40.13;;;36.70;;
19830;SDS011;10076;52.008;4.708;2023-09-07T04:31:17;41.22;;;37.75;;
19830;SDS011;10076;52.008;4.708;2023-09-07T04:33:43;42.28;;;38.42;;
19830;SDS011;10076;52.008;4.708;2023-09-07T04:36:12;41.33;;;37.78;;
19830;SDS011;10076;52.008;4.708;2023-09-07T04:38:39;45.80;;;41.85;;
19830;SDS011;10076;52.008;4.708;2023-09-07T04:41:06;41.13;;;37.50;;
19830;SDS011;10076;52.008;4.708;2023-09-07T04:43:35;38.08;;;34.67;;
19830;SDS011;10076;52.008;4.708;2023-09-07T04:46:01;40.72;;;36.75;;
19830;SDS011;10076;52.008;4.708;2023-09-07T04:48:26;40.50;;;37.00;;
19830;SDS011;10076;52.008;4.708;2023-09-07T04:50:58;42.30;;;38.83;;
19830;SDS011;10076;52.008;4.708;2023-09-07T04:53:24;42.25;;;38.55;;
19830;SDS011;10076;52.008;4.708;2023-09-07T04:55:50;39.60;;;36.22;;
19830;SDS011;10076;52.008;4.708;2023-09-07T04:58:15;40.80;;;37.33;;
19830;SDS011;10076;52.008;4.708;2023-09-07T05:00:40;41.67;;;38.17;;
19830;SDS011;10076;52.008;4.708;2023-09-07T05:03:06;43.85;;;40.15;;
19830;SDS011;10076;52.008;4.708;2023-09-07T05:05:31;39.58;;;36.13;;
19830;SDS011;10076;52.008;4.708;2023-09-07T05:07:56;38.63;;;35.45;;
19830;SDS011;10076;52.008;4.708;2023-09-07T05:10:22;41.78;;;38.05;;
19830;SDS011;10076;52.008;4.708;2023-09-07T05:12:47;40.33;;;36.88;;
19830;SDS011;10076;52.008;4.708;2023-09-07T05:15:12;39.80;;;36.25;;
19830;SDS011;10076;52.008;4.708;2023-09-07T05:17:37;40.15;;;36.60;;
19830;SDS011;10076;52.008;4.708;2023-09-07T05:20:03;41.60;;;37.75;;
19830;SDS011;10076;52.008;4.708;2023-09-07T05:22:29;42.65;;;38.85;;
19830;SDS011;10076;52.008;4.708;2023-09-07T05:24:54;40.95;;;37.33;;
19830;SDS011;10076;52.008;4.708;2023-09-07T05:27:20;40.83;;;37.28;;
19830;SDS011;10076;52.008;4.708;2023-09-07T05:29:45;40.35;;;36.72;;
19830;SDS011;10076;52.008;4.708;2023-09-07T05:32:10;40.85;;;37.28;;
19830;SDS011;10076;52.008;4.708;2023-09-07T05:34:36;41.25;;;37.70;;
19830;SDS011;10076;52.008;4.708;2023-09-07T05:37:01;41.95;;;38.38;;
19830;SDS011;10076;52.008;4.708;2023-09-07T05:39:26;43.20;;;39.60;;
19830;SDS011;10076;52.008;4.708;2023-09-07T05:41:52;42.03;;;38.38;;
19830;SDS011;10076;52.008;4.708;2023-09-07T05:44:17;40.88;;;37.30;;
19830;SDS011;10076;52.008;4.708;2023-09-07T05:46:42;39.65;;;36.33;;
19830;SDS011;10076;52.008;4.708;2023-09-07T05:49:08;41.30;;;37.72;;
19830;SDS011;10076;52.008;4.708;2023-09-07T05:51:33;40.15;;;36.47;;
19830;SDS011;10076;52.008;4.708;2023-09-07T05:53:58;42.30;;;38.65;;
19830;SDS011;10076;52.008;4.708;2023-09-07T05:56:24;41.50;;;38.05;;
19830;SDS011;10076;52.008;4.708;2023-09-07T05:58:49;42.80;;;39.05;;
19830;SDS011;10076;52.008;4.708;2023-09-07T06:01:14;42.95;;;39.45;;
19830;SDS011;10076;52.008;4.708;2023-09-07T06:03:40;41.15;;;37.65;;
19830;SDS011;10076;52.008;4.708;2023-09-07T06:06:06;40.30;;;36.80;;
19830;SDS011;10076;52.008;4.708;2023-09-07T06:08:31;41.05;;;37.65;;
19830;SDS011;10076;52.008;4.708;2023-09-07T06:10:57;39.33;;;36.03;;
19830;SDS011;10076;52.008;4.708;2023-09-07T06:13:22;40.42;;;37.15;;
19830;SDS011;10076;52.008;4.708;2023-09-07T06:15:47;38.28;;;34.97;;
19830;SDS011;10076;52.008;4.708;2023-09-07T06:18:13;39.50;;;35.90;;
19830;SDS011;10076;52.008;4.708;2023-09-07T06:20:38;40.33;;;36.88;;
19830;SDS011;10076;52.008;4.708;2023-09-07T06:23:03;40.88;;;37.55;;
19830;SDS011;10076;52.008;4.708;2023-09-07T06:25:29;40.15;;;36.75;;
19830;SDS011;10076;52.008;4.708;2023-09-07T06:27:54;40.72;;;37.30;;
19830;SDS011;10076;52.008;4.708;2023-09-07T06:30:19;40.92;;;37.17;;
19830;SDS011;10076;52.008;4.708;2023-09-07T06:32:45;40.95;;;37.45;;
19830;SDS011;10076;52.008;4.708;2023-09-07T06:35:10;40.80;;;37.47;;
19830;SDS011;10076;52.008;4.708;2023-09-07T06:37:35;40.92;;;37.42;;
19830;SDS011;10076;52.008;4.708;2023-09-07T06:40:02;39.58;;;36.03;;
19830;SDS011;10076;52.008;4.708;2023-09-07T06:42:28;38.60;;;35.28;;
19830;SDS011;10076;52.008;4.708;2023-09-07T06:44:55;37.97;;;34.78;;
19830;SDS011;10076;52.008;4.708;2023-09-07T06:47:21;39.15;;;35.95;;
19830;SDS011;10076;52.008;4.708;2023-09-07T06:49:46;39.00;;;35.85;;
19830;SDS011;10076;52.008;4.708;2023-09-07T06:52:12;39.03;;;35.53;;
19830;SDS011;10076;52.008;4.708;2023-09-07T06:54:38;39.40;;;36.17;;
19830;SDS011;10076;52.008;4.708;2023-09-07T06:57:06;38.42;;;35.20;;
19830;SDS011;10076;52.008;4.708;2023-09-07T06:59:32;38.35;;;35.08;;
19830;SDS011;10076;52.008;4.708;2023-09-07T07:01:58;38.75;;;35.55;;
19830;SDS011;10076;52.008;4.708;2023-09-07T07:04:25;37.75;;;34.72;;
19830;SDS011;10076;52.008;4.708;2023-09-07T07:06:50;38.20;;;34.92;;
19830;SDS011;10076;52.008;4.708;2023-09-07T07:09:15;36.72;;;33.63;;
19830;SDS011;10076;52.008;4.708;2023-09-07T07:11:40;36.95;;;33.65;;
19830;SDS011;10076;52.008;4.708;2023-09-07T07:14:07;37.65;;;34.55;;
19830;SDS011;10076;52.008;4.708;2023-09-07T07:16:33;37.75;;;34.65;;
19830;SDS011;10076;52.008;4.708;2023-09-07T07:18:59;38.63;;;35.42;;
19830;SDS011;10076;52.008;4.708;2023-09-07T07:21:24;37.05;;;33.97;;
19830;SDS011;10076;52.008;4.708;2023-09-07T07:23:50;37.25;;;34.25;;
19830;SDS011;10076;52.008;4.708;2023-09-07T07:26:15;40.05;;;36.63;;
19830;SDS011;10076;52.008;4.708;2023-09-07T07:28:40;39.80;;;36.40;;
19830;SDS011;10076;52.008;4.708;2023-09-07T07:31:09;39.92;;;36.83;;
19830;SDS011;10076;52.008;4.708;2023-09-07T07:33:35;38.30;;;34.63;;
19830;SDS011;10076;52.008;4.708;2023-09-07T07:36:00;39.00;;;35.70;;
19830;SDS011;10076;52.008;4.708;2023-09-07T07:38:26;39.38;;;36.10;;
19830;SDS011;10076;52.008;4.708;2023-09-07T07:40:51;38.42;;;35.42;;
19830;SDS011;10076;52.008;4.708;2023-09-07T07:43:18;36.70;;;33.88;;
19830;SDS011;10076;52.008;4.708;2023-09-07T07:45:43;39.30;;;36.35;;
19830;SDS011;10076;52.008;4.708;2023-09-07T07:48:09;37.13;;;34.25;;
19830;SDS011;10076;52.008;4.708;2023-09-07T07:50:38;36.15;;;33.35;;
19830;SDS011;10076;52.008;4.708;2023-09-07T07:53:07;35.22;;;32.53;;
19830;SDS011;10076;52.008;4.708;2023-09-07T07:55:36;36.47;;;33.17;;
19830;SDS011;10076;52.008;4.708;2023-09-07T07:58:05;34.10;;;31.25;;
19830;SDS011;10076;52.008;4.708;2023-09-07T08:00:33;34.30;;;31.48;;
19830;SDS011;10076;52.008;4.708;2023-09-07T08:03:02;33.97;;;31.23;;
19830;SDS011;10076;52.008;4.708;2023-09-07T08:05:28;32.08;;;29.67;;
19830;SDS011;10076;52.008;4.708;2023-09-07T08:07:54;33.40;;;30.83;;
19830;SDS011;10076;52.008;4.708;2023-09-07T08:10:21;32.28;;;29.58;;
19830;SDS011;10076;52.008;4.708;2023-09-07T08:12:46;32.88;;;30.45;;
19830;SDS011;10076;52.008;4.708;2023-09-07T08:15:11;32.85;;;30.17;;
19830;SDS011;10076;52.008;4.708;2023-09-07T08:17:37;32.85;;;29.88;;
19830;SDS011;10076;52.008;4.708;2023-09-07T08:20:02;31.83;;;29.17;;
19830;SDS011;10076;52.008;4.708;2023-09-07T08:22:28;31.45;;;28.83;;
19830;SDS011;10076;52.008;4.708;2023-09-07T08:24:53;31.52;;;29.02;;
19830;SDS011;10076;52.008;4.708;2023-09-07T08:27:20;28.67;;;26.48;;
19830;SDS011;10076;52.008;4.708;2023-09-07T08:29:46;29.25;;;26.88;;
19830;SDS011;10076;52.008;4.708;2023-09-07T08:32:13;29.73;;;27.42;;
19830;SDS011;10076;52.008;4.708;2023-09-07T08:34:39;32.17;;;29.50;;
19830;SDS011;10076;52.008;4.708;2023-09-07T08:37:06;28.35;;;26.02;;
19830;SDS011;10076;52.008;4.708;2023-09-07T08:39:33;27.77;;;25.65;;
19830;SDS011;10076;52.008;4.708;2023-09-07T08:41:59;28.73;;;26.33;;
19830;SDS011;10076;52.008;4.708;2023-09-07T08:44:26;28.05;;;25.85;;
19830;SDS011;10076;52.008;4.708;2023-09-07T08:46:52;27.70;;;25.73;;
19830;SDS011;10076;52.008;4.708;2023-09-07T08:49:17;27.58;;;25.23;;
19830;SDS011;10076;52.008;4.708;2023-09-07T08:51:48;27.50;;;25.20;;
19830;SDS011;10076;52.008;4.708;2023-09-07T08:54:14;25.17;;;23.27;;
19830;SDS011;10076;52.008;4.708;2023-09-07T08:56:39;24.88;;;22.70;;
19830;SDS011;10076;52.008;4.708;2023-09-07T08:59:05;23.00;;;21.20;;
19830;SDS011;10076;52.008;4.708;2023-09-07T09:01:30;21.98;;;20.08;;
19830;SDS011;10076;52.008;4.708;2023-09-07T09:03:57;21.05;;;19.65;;
19830;SDS011;10076;52.008;4.708;2023-09-07T09:06:23;21.40;;;19.70;;
19830;SDS011;10076;52.008;4.708;2023-09-07T09:08:55;20.50;;;19.02;;
19830;SDS011;10076;52.008;4.708;2023-09-07T09:11:22;19.08;;;17.67;;
19830;SDS011;10076;52.008;4.708;2023-09-07T09:13:49;19.38;;;17.88;;
19830;SDS011;10076;52.008;4.708;2023-09-07T09:16:17;17.77;;;16.48;;
19830;SDS011;10076;52.008;4.708;2023-09-07T09:18:49;17.83;;;16.52;;
19830;SDS011;10076;52.008;4.708;2023-09-07T09:21:19;17.75;;;16.33;;
19830;SDS011;10076;52.008;4.708;2023-09-07T09:23:47;16.20;;;15.00;;
19830;SDS011;10076;52.008;4.708;2023-09-07T09:26:14;15.90;;;14.80;;
19830;SDS011;10076;52.008;4.708;2023-09-07T09:28:40;15.15;;;14.05;;
19830;SDS011;10076;52.008;4.708;2023-09-07T09:31:05;15.82;;;14.52;;
19830;SDS011;10076;52.008;4.708;2023-09-07T09:33:37;15.75;;;14.55;;
19830;SDS011;10076;52.008;4.708;2023-09-07T09:36:02;15.15;;;14.05;;
19830;SDS011;10076;52.008;4.708;2023-09-07T09:38:28;14.93;;;13.88;;
19830;SDS011;10076;52.008;4.708;2023-09-07T09:40:57;14.38;;;13.32;;
19830;SDS011;10076;52.008;4.708;2023-09-07T09:43:23;15.05;;;13.95;;
19830;SDS011;10076;52.008;4.708;2023-09-07T09:45:52;19.20;;;17.55;;
19830;SDS011;10076;52.008;4.708;2023-09-07T09:48:21;14.82;;;13.68;;
19830;SDS011;10076;52.008;4.708;2023-09-07T09:50:48;14.50;;;13.60;;
19830;SDS011;10076;52.008;4.708;2023-09-07T09:53:18;14.30;;;13.27;;
19830;SDS011;10076;52.008;4.708;2023-09-07T09:55:48;15.30;;;14.30;;
19830;SDS011;10076;52.008;4.708;2023-09-07T09:58:15;14.35;;;13.18;;
19830;SDS011;10076;52.008;4.708;2023-09-07T10:00:44;14.20;;;13.30;;
19830;SDS011;10076;52.008;4.708;2023-09-07T10:03:20;14.55;;;13.57;;
19830;SDS011;10076;52.008;4.708;2023-09-07T10:05:51;13.98;;;13.05;;
19830;SDS011;10076;52.008;4.708;2023-09-07T10:08:17;14.07;;;13.23;;
19830;SDS011;10076;52.008;4.708;2023-09-07T10:10:46;14.18;;;13.27;;
19830;SDS011;10076;52.008;4.708;2023-09-07T10:13:16;14.20;;;13.20;;
19830;SDS011;10076;52.008;4.708;2023-09-07T10:15:59;14.60;;;13.50;;
19830;SDS011;10076;52.008;4.708;2023-09-07T10:18:32;13.77;;;12.88;;
19830;SDS011;10076;52.008;4.708;2023-09-07T10:21:02;13.93;;;13.02;;
19830;SDS011;10076;52.008;4.708;2023-09-07T10:23:35;13.15;;;12.35;;
19830;SDS011;10076;52.008;4.708;2023-09-07T10:26:10;14.38;;;13.38;;
19830;SDS011;10076;52.008;4.708;2023-09-07T10:28:37;13.80;;;12.90;;
19830;SDS011;10076;52.008;4.708;2023-09-07T10:31:24;13.82;;;12.82;;
19830;SDS011;10076;52.008;4.708;2023-09-07T10:33:50;13.38;;;12.52;;
19830;SDS011;10076;52.008;4.708;2023-09-07T10:36:22;13.63;;;12.73;;
19830;SDS011;10076;52.008;4.708;2023-09-07T10:38:49;13.55;;;12.60;;
19830;SDS011;10076;52.008;4.708;2023-09-07T10:41:18;13.43;;;12.35;;
19830;SDS011;10076;52.008;4.708;2023-09-07T10:43:53;13.75;;;12.77;;
19830;SDS011;10076;52.008;4.708;2023-09-07T10:46:20;13.43;;;12.68;;
19830;SDS011;10076;52.008;4.708;2023-09-07T10:48:53;14.07;;;13.18;;
19830;SDS011;10076;52.008;4.708;2023-09-07T10:51:19;13.52;;;12.68;;
19830;SDS011;10076;52.008;4.708;2023-09-07T10:53:45;13.27;;;12.48;;
19830;SDS011;10076;52.008;4.708;2023-09-07T10:56:10;13.43;;;12.63;;
19830;SDS011;10076;52.008;4.708;2023-09-07T10:58:36;13.90;;;13.00;;
19830;SDS011;10076;52.008;4.708;2023-09-07T11:01:07;13.75;;;12.65;;
19830;SDS011;10076;52.008;4.708;2023-09-07T11:03:33;13.57;;;12.48;;
19830;SDS011;10076;52.008;4.708;2023-09-07T11:08:30;13.40;;;12.60;;
19830;SDS011;10076;52.008;4.708;2023-09-07T11:10:55;13.07;;;12.38;;
19830;SDS011;10076;52.008;4.708;2023-09-07T11:13:21;12.98;;;12.23;;
19830;SDS011;10076;52.008;4.708;2023-09-07T11:15:48;13.50;;;12.70;;
19830;SDS011;10076;52.008;4.708;2023-09-07T11:18:13;12.82;;;12.13;;
19830;SDS011;10076;52.008;4.708;2023-09-07T11:20:38;13.82;;;13.00;;
19830;SDS011;10076;52.008;4.708;2023-09-07T11:23:04;12.98;;;12.27;;
19830;SDS011;10076;52.008;4.708;2023-09-07T11:25:34;13.27;;;12.48;;
19830;SDS011;10076;52.008;4.708;2023-09-07T11:28:01;13.23;;;12.50;;
19830;SDS011;10076;52.008;4.708;2023-09-07T11:30:31;12.82;;;12.02;;
19830;SDS011;10076;52.008;4.708;2023-09-07T11:33:15;12.52;;;11.82;;
19830;SDS011;10076;52.008;4.708;2023-09-07T11:35:41;12.80;;;12.10;;
19830;SDS011;10076;52.008;4.708;2023-09-07T11:38:06;13.30;;;12.50;;
19830;SDS011;10076;52.008;4.708;2023-09-07T11:40:35;12.90;;;12.20;;
19830;SDS011;10076;52.008;4.708;2023-09-07T11:43:00;12.95;;;12.25;;
19830;SDS011;10076;52.008;4.708;2023-09-07T11:45:27;12.95;;;12.00;;
19830;SDS011;10076;52.008;4.708;2023-09-07T11:47:52;12.38;;;11.68;;
19830;SDS011;10076;52.008;4.708;2023-09-07T11:50:18;13.10;;;12.20;;
19830;SDS011;10076;52.008;4.708;2023-09-07T11:52:44;13.52;;;12.63;;
19830;SDS011;10076;52.008;4.708;2023-09-07T11:55:09;12.98;;;12.07;;
19830;SDS011;10076;52.008;4.708;2023-09-07T11:57:35;12.70;;;12.00;;
19830;SDS011;10076;52.008;4.708;2023-09-07T12:00:01;12.88;;;12.07;;
19830;SDS011;10076;52.008;4.708;2023-09-07T12:02:29;12.35;;;11.75;;
19830;SDS011;10076;52.008;4.708;2023-09-07T12:04:54;14.55;;;13.55;;
19830;SDS011;10076;52.008;4.708;2023-09-07T12:07:19;13.02;;;12.32;;
19830;SDS011;10076;52.008;4.708;2023-09-07T12:09:45;13.38;;;12.43;;
19830;SDS011;10076;52.008;4.708;2023-09-07T12:12:10;13.25;;;12.35;;
19830;SDS011;10076;52.008;4.708;2023-09-07T12:14:36;13.18;;;12.27;;
19830;SDS011;10076;52.008;4.708;2023-09-07T12:17:01;13.25;;;12.45;;
19830;SDS011;10076;52.008;4.708;2023-09-07T12:19:26;13.25;;;12.45;;
19830;SDS011;10076;52.008;4.708;2023-09-07T12:21:52;13.43;;;12.65;;
19830;SDS011;10076;52.008;4.708;2023-09-07T12:24:17;12.85;;;12.13;;
19830;SDS011;10076;52.008;4.708;2023-09-07T12:26:42;13.32;;;12.25;;
19830;SDS011;10076;52.008;4.708;2023-09-07T12:29:08;13.07;;;12.27;;
19830;SDS011;10076;52.008;4.708;2023-09-07T12:31:33;12.95;;;12.15;;
19830;SDS011;10076;52.008;4.708;2023-09-07T12:33:59;12.82;;;12.02;;
19830;SDS011;10076;52.008;4.708;2023-09-07T12:36:24;12.98;;;12.27;;
19830;SDS011;10076;52.008;4.708;2023-09-07T12:38:53;12.57;;;11.88;;
19830;SDS011;10076;52.008;4.708;2023-09-07T12:41:18;12.63;;;11.82;;
19830;SDS011;10076;52.008;4.708;2023-09-07T12:43:44;13.32;;;12.55;;
19830;SDS011;10076;52.008;4.708;2023-09-07T12:46:09;13.02;;;12.23;;
19830;SDS011;10076;52.008;4.708;2023-09-07T12:48:35;13.15;;;12.45;;
19830;SDS011;10076;52.008;4.708;2023-09-07T12:51:00;12.93;;;12.23;;
19830;SDS011;10076;52.008;4.708;2023-09-07T12:53:25;12.77;;;12.07;;
19830;SDS011;10076;52.008;4.708;2023-09-07T12:55:54;13.05;;;12.25;;
19830;SDS011;10076;52.008;4.708;2023-09-07T12:58:19;13.00;;;12.20;;
19830;SDS011;10076;52.008;4.708;2023-09-07T13:00:45;13.13;;;12.27;;
19830;SDS011;10076;52.008;4.708;2023-09-07T13:03:12;13.40;;;12.70;;
19830;SDS011;10076;52.008;4.708;2023-09-07T13:05:38;13.60;;;12.80;;
19830;SDS011;10076;52.008;4.708;2023-09-07T13:08:03;13.23;;;12.43;;
19830;SDS011;10076;52.008;4.708;2023-09-07T13:10:29;13.77;;;12.88;;
19830;SDS011;10076;52.008;4.708;2023-09-07T13:12:54;13.43;;;12.63;;
19830;SDS011;10076;52.008;4.708;2023-09-07T13:15:20;13.45;;;12.65;;
19830;SDS011;10076;52.008;4.708;2023-09-07T13:17:45;13.63;;;12.73;;
19830;SDS011;10076;52.008;4.708;2023-09-07T13:20:10;13.88;;;12.95;;
19830;SDS011;10076;52.008;4.708;2023-09-07T13:22:37;14.38;;;13.27;;
19830;SDS011;10076;52.008;4.708;2023-09-07T13:25:02;14.15;;;13.25;;
19830;SDS011;10076;52.008;4.708;2023-09-07T13:27:30;13.35;;;12.45;;
19830;SDS011;10076;52.008;4.708;2023-09-07T13:29:55;13.18;;;12.38;;
19830;SDS011;10076;52.008;4.708;2023-09-07T13:32:22;13.95;;;13.15;;
19830;SDS011;10076;52.008;4.708;2023-09-07T13:34:48;13.43;;;12.63;;
19830;SDS011;10076;52.008;4.708;2023-09-07T13:37:13;13.10;;;12.30;;
19830;SDS011;10076;52.008;4.708;2023-09-07T13:39:38;13.38;;;12.48;;
19830;SDS011;10076;52.008;4.708;2023-09-07T13:42:04;14.10;;;13.10;;
19830;SDS011;10076;52.008;4.708;2023-09-07T13:44:29;13.48;;;12.68;;
19830;SDS011;10076;52.008;4.708;2023-09-07T13:46:55;13.52;;;12.43;;
19830;SDS011;10076;52.008;4.708;2023-09-07T13:49:20;13.15;;;12.45;;
19830;SDS011;10076;52.008;4.708;2023-09-07T13:51:45;13.23;;;12.38;;
19830;SDS011;10076;52.008;4.708;2023-09-07T13:54:11;13.48;;;12.52;;
19830;SDS011;10076;52.008;4.708;2023-09-07T13:56:36;12.85;;;12.07;;
19830;SDS011;10076;52.008;4.708;2023-09-07T13:59:01;13.65;;;12.85;;
19830;SDS011;10076;52.008;4.708;2023-09-07T14:01:27;14.23;;;13.32;;
19830;SDS011;10076;52.008;4.708;2023-09-07T14:03:52;13.57;;;12.57;;
19830;SDS011;10076;52.008;4.708;2023-09-07T14:06:17;14.05;;;13.25;;
19830;SDS011;10076;52.008;4.708;2023-09-07T14:08:45;14.15;;;12.88;;
19830;SDS011;10076;52.008;4.708;2023-09-07T14:11:11;14.23;;;13.23;;
19830;SDS011;10076;52.008;4.708;2023-09-07T14:13:36;13.80;;;12.90;;
19830;SDS011;10076;52.008;4.708;2023-09-07T14:16:02;12.95;;;12.25;;
19830;SDS011;10076;52.008;4.708;2023-09-07T14:18:27;13.32;;;12.43;;